sensor_id;sensor_type;location;lat;lon;timestamp;pressure;altitude;pressure_sealevel;temperature;humidity
10348;BME280;5220;43.192;23.284;2022-07-06T00:02:10;96905.53;;;23.63;78.56
10348;BME280;5220;43.192;23.284;2022-07-06T00:07:33;96890.38;;;23.35;80.28
10348;BME280;5220;43.192;23.284;2022-07-06T00:10:00;96887.09;;;23.33;80.58
10348;BME280;5220;43.192;23.284;2022-07-06T00:12:27;96884.66;;;23.32;81.43
10348;BME280;5220;43.192;23.284;2022-07-06T00:14:53;96884.69;;;23.38;81.62
10348;BME280;5220;43.192;23.284;2022-07-06T00:17:20;96880.88;;;23.41;82.04
10348;BME280;5220;43.192;23.284;2022-07-06T00:19:47;96874.53;;;23.42;81.37
10348;BME280;5220;43.192;23.284;2022-07-06T00:22:14;96890.72;;;23.47;80.14
10348;BME280;5220;43.192;23.284;2022-07-06T00:24:42;96884.81;;;23.51;80.55
10348;BME280;5220;43.192;23.284;2022-07-06T00:27:09;96888.91;;;23.54;80.32
10348;BME280;5220;43.192;23.284;2022-07-06T00:29:35;96889.94;;;23.53;79.38
10348;BME280;5220;43.192;23.284;2022-07-06T00:32:03;96891.38;;;23.55;79.30
10348;BME280;5220;43.192;23.284;2022-07-06T00:37:34;96899.06;;;23.44;78.45
10348;BME280;5220;43.192;23.284;2022-07-06T00:40:03;96907.59;;;23.39;79.09
10348;BME280;5220;43.192;23.284;2022-07-06T00:42:29;96903.47;;;23.37;79.25
10348;BME280;5220;43.192;23.284;2022-07-06T00:44:56;96902.22;;;23.33;78.89
10348;BME280;5220;43.192;23.284;2022-07-06T00:47:23;96900.38;;;23.33;79.18
10348;BME280;5220;43.192;23.284;2022-07-06T00:49:50;96895.06;;;23.33;79.58
10348;BME280;5220;43.192;23.284;2022-07-06T00:52:34;96900.38;;;23.33;79.70
10348;BME280;5220;43.192;23.284;2022-07-06T00:55:02;96883.28;;;23.15;79.21
10348;BME280;5220;43.192;23.284;2022-07-06T00:57:29;96894.13;;;23.20;79.79
10348;BME280;5220;43.192;23.284;2022-07-06T00:59:56;96894.66;;;23.09;79.50
10348;BME280;5220;43.192;23.284;2022-07-06T01:02:23;96890.56;;;23.06;79.65
10348;BME280;5220;43.192;23.284;2022-07-06T01:08:12;96897.47;;;23.00;79.60
10348;BME280;5220;43.192;23.284;2022-07-06T01:10:40;96898.25;;;23.01;79.73
10348;BME280;5220;43.192;23.284;2022-07-06T01:13:07;96905.66;;;23.06;79.49
10348;BME280;5220;43.192;23.284;2022-07-06T01:15:33;96909.38;;;23.11;78.64
10348;BME280;5220;43.192;23.284;2022-07-06T01:18:00;96910.03;;;23.13;78.79
10348;BME280;5220;43.192;23.284;2022-07-06T01:20:29;96903.31;;;23.17;79.06
10348;BME280;5220;43.192;23.284;2022-07-06T01:22:59;96907.41;;;23.20;78.76
10348;BME280;5220;43.192;23.284;2022-07-06T01:25:26;96910.72;;;23.22;79.26
10348;BME280;5220;43.192;23.284;2022-07-06T01:27:54;96916.84;;;23.22;78.64
10348;BME280;5220;43.192;23.284;2022-07-06T01:30:21;96915.81;;;23.23;78.75
10348;BME280;5220;43.192;23.284;2022-07-06T01:32:48;96917.84;;;23.21;78.31
10348;BME280;5220;43.192;23.284;2022-07-06T01:35:15;96918.03;;;23.20;78.69
10348;BME280;5220;43.192;23.284;2022-07-06T01:37:43;96921.72;;;23.19;79.01
10348;BME280;5220;43.192;23.284;2022-07-06T01:40:11;96927.56;;;23.14;78.77
10348;BME280;5220;43.192;23.284;2022-07-06T01:42:38;96918.69;;;23.00;78.11
10348;BME280;5220;43.192;23.284;2022-07-06T01:45:07;96934.78;;;22.78;78.80
10348;BME280;5220;43.192;23.284;2022-07-06T01:47:34;96927.97;;;22.69;79.57
10348;BME280;5220;43.192;23.284;2022-07-06T01:50:03;96933.06;;;22.56;78.70
10348;BME280;5220;43.192;23.284;2022-07-06T01:52:30;96937.69;;;22.32;79.44
10348;BME280;5220;43.192;23.284;2022-07-06T01:54:59;96933.16;;;22.12;80.27
10348;BME280;5220;43.192;23.284;2022-07-06T01:57:25;96933.44;;;22.02;80.50
10348;BME280;5220;43.192;23.284;2022-07-06T01:59:52;96941.66;;;22.07;81.66
10348;BME280;5220;43.192;23.284;2022-07-06T02:02:19;96941.47;;;22.09;81.23
10348;BME280;5220;43.192;23.284;2022-07-06T02:04:46;96950.88;;;22.11;80.76
10348;BME280;5220;43.192;23.284;2022-07-06T02:07:12;96948.22;;;22.11;80.68
10348;BME280;5220;43.192;23.284;2022-07-06T02:09:39;96955.91;;;22.06;80.45
10348;BME280;5220;43.192;23.284;2022-07-06T02:12:07;96955.91;;;22.06;80.12
10348;BME280;5220;43.192;23.284;2022-07-06T02:14:56;96955.72;;;22.08;80.12
10348;BME280;5220;43.192;23.284;2022-07-06T02:17:23;96960.13;;;22.01;79.78
10348;BME280;5220;43.192;23.284;2022-07-06T02:19:52;96957.56;;;22.07;79.66
10348;BME280;5220;43.192;23.284;2022-07-06T02:22:18;96964.94;;;22.12;80.30
10348;BME280;5220;43.192;23.284;2022-07-06T02:27:52;96958.31;;;22.01;79.46
10348;BME280;5220;43.192;23.284;2022-07-06T02:30:19;96964.13;;;21.96;79.48
10348;BME280;5220;43.192;23.284;2022-07-06T02:32:46;96970.31;;;21.89;79.81
10348;BME280;5220;43.192;23.284;2022-07-06T02:35:13;96976.31;;;21.83;79.74
10348;BME280;5220;43.192;23.284;2022-07-06T02:37:40;96972.50;;;21.85;79.97
10348;BME280;5220;43.192;23.284;2022-07-06T02:40:07;96971.00;;;21.91;80.64
10348;BME280;5220;43.192;23.284;2022-07-06T02:42:35;96958.06;;;21.88;80.44
10348;BME280;5220;43.192;23.284;2022-07-06T02:45:03;96966.19;;;21.86;79.54
10348;BME280;5220;43.192;23.284;2022-07-06T02:47:30;96964.94;;;21.82;79.75
10348;BME280;5220;43.192;23.284;2022-07-06T02:49:57;96960.00;;;21.79;79.64
10348;BME280;5220;43.192;23.284;2022-07-06T02:52:24;96957.50;;;21.78;79.95
10348;BME280;5220;43.192;23.284;2022-07-06T03:01:14;96973.50;;;21.84;79.59
10348;BME280;5220;43.192;23.284;2022-07-06T03:03:51;96979.22;;;21.73;80.26
10348;BME280;5220;43.192;23.284;2022-07-06T03:06:18;96965.63;;;21.76;80.19
10348;BME280;5220;43.192;23.284;2022-07-06T03:08:45;96966.56;;;21.83;80.04
10348;BME280;5220;43.192;23.284;2022-07-06T03:11:11;96971.47;;;21.86;79.50
10348;BME280;5220;43.192;23.284;2022-07-06T03:13:38;96979.41;;;21.94;79.37
10348;BME280;5220;43.192;23.284;2022-07-06T03:16:05;96969.66;;;21.87;79.49
10348;BME280;5220;43.192;23.284;2022-07-06T03:18:33;96978.09;;;21.90;79.25
10348;BME280;5220;43.192;23.284;2022-07-06T03:21:00;96976.63;;;21.88;79.09
10348;BME280;5220;43.192;23.284;2022-07-06T03:23:29;96965.91;;;21.81;79.62
10348;BME280;5220;43.192;23.284;2022-07-06T03:25:56;96971.66;;;21.70;79.31
10348;BME280;5220;43.192;23.284;2022-07-06T03:28:23;96968.16;;;21.55;80.21
10348;BME280;5220;43.192;23.284;2022-07-06T03:30:50;96963.69;;;21.56;80.25
10348;BME280;5220;43.192;23.284;2022-07-06T03:33:16;96959.75;;;21.52;80.75
10348;BME280;5220;43.192;23.284;2022-07-06T03:35:45;96961.59;;;21.51;80.40
10348;BME280;5220;43.192;23.284;2022-07-06T03:38:11;96961.03;;;21.41;80.80
10348;BME280;5220;43.192;23.284;2022-07-06T03:40:38;96962.31;;;21.45;81.17
10348;BME280;5220;43.192;23.284;2022-07-06T03:43:05;96962.56;;;21.35;81.47
10348;BME280;5220;43.192;23.284;2022-07-06T03:45:32;96963.47;;;21.42;82.46
10348;BME280;5220;43.192;23.284;2022-07-06T03:47:58;96963.94;;;21.46;81.67
10348;BME280;5220;43.192;23.284;2022-07-06T03:50:25;96966.41;;;21.48;81.92
10348;BME280;5220;43.192;23.284;2022-07-06T03:52:53;96956.00;;;21.46;81.57
10348;BME280;5220;43.192;23.284;2022-07-06T03:55:20;96959.47;;;21.47;82.37
10348;BME280;5220;43.192;23.284;2022-07-06T03:57:47;96961.03;;;21.56;82.70
10348;BME280;5220;43.192;23.284;2022-07-06T04:00:14;96969.91;;;21.63;82.53
10348;BME280;5220;43.192;23.284;2022-07-06T04:02:41;96967.28;;;21.77;83.34
10348;BME280;5220;43.192;23.284;2022-07-06T04:05:08;96967.38;;;21.84;82.41
10348;BME280;5220;43.192;23.284;2022-07-06T04:07:35;96966.56;;;21.83;81.75
10348;BME280;5220;43.192;23.284;2022-07-06T04:10:03;96969.53;;;21.88;82.35
10348;BME280;5220;43.192;23.284;2022-07-06T04:12:31;96969.25;;;21.98;82.64
10348;BME280;5220;43.192;23.284;2022-07-06T04:14:57;96968.53;;;22.04;82.88
10348;BME280;5220;43.192;23.284;2022-07-06T04:17:24;96962.66;;;22.09;82.45
10348;BME280;5220;43.192;23.284;2022-07-06T04:20:09;96962.94;;;22.14;82.08
10348;BME280;5220;43.192;23.284;2022-07-06T04:22:37;96963.84;;;22.21;80.45
10348;BME280;5220;43.192;23.284;2022-07-06T04:25:06;96969.88;;;22.29;81.41
10348;BME280;5220;43.192;23.284;2022-07-06T04:27:33;96963.19;;;22.33;81.00
10348;BME280;5220;43.192;23.284;2022-07-06T04:30:04;96964.66;;;22.36;81.29
10348;BME280;5220;43.192;23.284;2022-07-06T04:32:31;96966.38;;;22.43;82.25
10348;BME280;5220;43.192;23.284;2022-07-06T04:34:58;96966.47;;;22.50;82.26
10348;BME280;5220;43.192;23.284;2022-07-06T04:37:25;96980.34;;;22.52;81.31
10348;BME280;5220;43.192;23.284;2022-07-06T04:39:51;96978.97;;;22.56;81.60
10348;BME280;5220;43.192;23.284;2022-07-06T04:42:20;96983.53;;;22.62;81.60
10348;BME280;5220;43.192;23.284;2022-07-06T04:44:46;96977.41;;;22.62;81.01
10348;BME280;5220;43.192;23.284;2022-07-06T04:47:13;96979.56;;;22.66;81.30
10348;BME280;5220;43.192;23.284;2022-07-06T04:49:40;96979.19;;;22.69;82.06
10348;BME280;5220;43.192;23.284;2022-07-06T04:52:07;96977.22;;;22.78;81.73
10348;BME280;5220;43.192;23.284;2022-07-06T04:55:01;96973.63;;;22.85;83.05
10348;BME280;5220;43.192;23.284;2022-07-06T04:57:31;96982.69;;;22.91;82.83
10348;BME280;5220;43.192;23.284;2022-07-06T04:59:58;96988.75;;;23.06;84.02
10348;BME280;5220;43.192;23.284;2022-07-06T05:02:25;96984.91;;;23.09;83.63
10348;BME280;5220;43.192;23.284;2022-07-06T05:11:22;96998.34;;;23.07;82.92
10348;BME280;5220;43.192;23.284;2022-07-06T05:13:50;97006.28;;;22.86;83.45
10348;BME280;5220;43.192;23.284;2022-07-06T05:16:17;97004.00;;;22.83;82.67
10348;BME280;5220;43.192;23.284;2022-07-06T05:18:43;97009.84;;;22.93;82.35
10348;BME280;5220;43.192;23.284;2022-07-06T05:21:10;97018.16;;;22.90;82.52
10348;BME280;5220;43.192;23.284;2022-07-06T05:23:37;97019.25;;;22.95;82.38
10348;BME280;5220;43.192;23.284;2022-07-06T05:26:04;97029.38;;;23.07;83.00
10348;BME280;5220;43.192;23.284;2022-07-06T05:28:31;97025.53;;;23.09;83.38
10348;BME280;5220;43.192;23.284;2022-07-06T05:30:59;97028.50;;;23.21;82.51
10348;BME280;5220;43.192;23.284;2022-07-06T05:33:27;97035.91;;;23.25;82.29
10348;BME280;5220;43.192;23.284;2022-07-06T05:35:54;97031.78;;;23.23;80.96
10348;BME280;5220;43.192;23.284;2022-07-06T05:38:21;97039.25;;;23.34;80.77
10348;BME280;5220;43.192;23.284;2022-07-06T05:40:47;97046.50;;;23.40;79.97
10348;BME280;5220;43.192;23.284;2022-07-06T05:43:14;97050.88;;;23.47;80.13
10348;BME280;5220;43.192;23.284;2022-07-06T05:45:41;97046.56;;;23.46;79.70
10348;BME280;5220;43.192;23.284;2022-07-06T05:48:09;97047.63;;;23.52;80.26
10348;BME280;5220;43.192;23.284;2022-07-06T05:50:53;97058.13;;;23.60;80.68
10348;BME280;5220;43.192;23.284;2022-07-06T05:53:20;97047.94;;;23.64;80.65
10348;BME280;5220;43.192;23.284;2022-07-06T05:55:47;97050.91;;;23.75;81.56
10348;BME280;5220;43.192;23.284;2022-07-06T05:58:14;97053.56;;;23.75;80.15
10348;BME280;5220;43.192;23.284;2022-07-06T06:00:41;97047.50;;;23.81;79.14
10348;BME280;5220;43.192;23.284;2022-07-06T06:03:09;97049.56;;;23.86;79.22
10348;BME280;5220;43.192;23.284;2022-07-06T06:05:36;97053.16;;;23.99;79.46
10348;BME280;5220;43.192;23.284;2022-07-06T06:08:03;97043.28;;;23.93;78.26
10348;BME280;5220;43.192;23.284;2022-07-06T06:10:30;97047.66;;;23.80;79.08
10348;BME280;5220;43.192;23.284;2022-07-06T06:12:57;97046.97;;;23.92;79.05
10348;BME280;5220;43.192;23.284;2022-07-06T06:15:24;97051.06;;;23.95;79.55
10348;BME280;5220;43.192;23.284;2022-07-06T06:17:50;97048.22;;;23.96;77.91
10348;BME280;5220;43.192;23.284;2022-07-06T06:20:19;97046.94;;;24.14;79.26
10348;BME280;5220;43.192;23.284;2022-07-06T06:22:47;97045.31;;;24.13;77.83
10348;BME280;5220;43.192;23.284;2022-07-06T06:25:14;97041.81;;;24.12;78.19
10348;BME280;5220;43.192;23.284;2022-07-06T06:31:02;97044.75;;;24.24;76.15
10348;BME280;5220;43.192;23.284;2022-07-06T06:33:29;97045.38;;;24.26;74.10
10348;BME280;5220;43.192;23.284;2022-07-06T06:35:57;97045.53;;;24.18;72.83
10348;BME280;5220;43.192;23.284;2022-07-06T06:38:24;97038.66;;;24.30;74.06
10348;BME280;5220;43.192;23.284;2022-07-06T06:40:53;97040.06;;;24.26;74.36
10348;BME280;5220;43.192;23.284;2022-07-06T06:43:20;97037.22;;;24.27;74.91
10348;BME280;5220;43.192;23.284;2022-07-06T06:45:47;97042.72;;;24.26;75.90
10348;BME280;5220;43.192;23.284;2022-07-06T06:48:14;97032.50;;;24.29;75.79
10348;BME280;5220;43.192;23.284;2022-07-06T06:50:40;97039.31;;;24.38;75.68
10348;BME280;5220;43.192;23.284;2022-07-06T06:53:08;97040.00;;;24.47;74.15
10348;BME280;5220;43.192;23.284;2022-07-06T06:55:35;97024.84;;;24.47;72.39
10348;BME280;5220;43.192;23.284;2022-07-06T06:58:02;97029.53;;;24.45;74.07
10348;BME280;5220;43.192;23.284;2022-07-06T07:00:29;97018.47;;;24.42;71.02
10348;BME280;5220;43.192;23.284;2022-07-06T07:02:56;97017.06;;;24.46;71.62
10348;BME280;5220;43.192;23.284;2022-07-06T07:05:22;97016.28;;;24.52;70.51
10348;BME280;5220;43.192;23.284;2022-07-06T07:07:50;97014.28;;;24.67;69.50
10348;BME280;5220;43.192;23.284;2022-07-06T07:10:18;97012.91;;;24.78;65.73
10348;BME280;5220;43.192;23.284;2022-07-06T07:12:45;97012.91;;;24.78;67.46
10348;BME280;5220;43.192;23.284;2022-07-06T07:15:13;97005.34;;;24.75;66.41
10348;BME280;5220;43.192;23.284;2022-07-06T07:17:40;97007.28;;;24.53;68.51
10348;BME280;5220;43.192;23.284;2022-07-06T07:20:08;97013.16;;;24.42;68.39
10348;BME280;5220;43.192;23.284;2022-07-06T07:22:35;97010.75;;;24.53;70.09
10348;BME280;5220;43.192;23.284;2022-07-06T07:25:02;97012.00;;;24.57;69.98
10348;BME280;5220;43.192;23.284;2022-07-06T07:27:30;97015.31;;;24.66;69.24
10348;BME280;5220;43.192;23.284;2022-07-06T07:29:57;97018.47;;;24.83;68.32
10348;BME280;5220;43.192;23.284;2022-07-06T07:32:24;97012.19;;;24.97;67.16
10348;BME280;5220;43.192;23.284;2022-07-06T07:34:55;97023.22;;;24.87;67.61
10348;BME280;5220;43.192;23.284;2022-07-06T07:37:22;97016.69;;;24.96;66.48
10348;BME280;5220;43.192;23.284;2022-07-06T07:39:49;97016.09;;;25.07;67.07
10348;BME280;5220;43.192;23.284;2022-07-06T07:42:16;97014.06;;;25.09;66.96
10348;BME280;5220;43.192;23.284;2022-07-06T07:44:53;97020.19;;;25.10;66.69
10348;BME280;5220;43.192;23.284;2022-07-06T07:47:32;97027.38;;;25.16;67.26
10348;BME280;5220;43.192;23.284;2022-07-06T07:49:59;97014.91;;;25.23;65.19
10348;BME280;5220;43.192;23.284;2022-07-06T07:52:25;97022.91;;;25.30;65.58
10348;BME280;5220;43.192;23.284;2022-07-06T07:57:44;97020.06;;;25.25;64.54
10348;BME280;5220;43.192;23.284;2022-07-06T08:00:13;97011.63;;;25.14;64.51
10348;BME280;5220;43.192;23.284;2022-07-06T08:02:40;97020.63;;;25.13;65.87
10348;BME280;5220;43.192;23.284;2022-07-06T08:05:07;97019.81;;;25.20;65.45
10348;BME280;5220;43.192;23.284;2022-07-06T08:07:58;97015.13;;;25.22;64.18
10348;BME280;5220;43.192;23.284;2022-07-06T08:10:25;97015.91;;;25.22;65.33
10348;BME280;5220;43.192;23.284;2022-07-06T08:12:51;97011.81;;;25.20;66.80
10348;BME280;5220;43.192;23.284;2022-07-06T08:15:20;97009.00;;;25.28;66.08
10348;BME280;5220;43.192;23.284;2022-07-06T08:17:48;97019.44;;;25.29;65.20
10348;BME280;5220;43.192;23.284;2022-07-06T08:20:15;97020.06;;;25.38;63.91
10348;BME280;5220;43.192;23.284;2022-07-06T08:22:41;97022.72;;;25.38;63.10
10348;BME280;5220;43.192;23.284;2022-07-06T08:25:09;97020.88;;;25.45;63.67
10348;BME280;5220;43.192;23.284;2022-07-06T08:27:36;97020.53;;;25.54;63.12
10348;BME280;5220;43.192;23.284;2022-07-06T08:30:03;97024.00;;;25.61;63.46
10348;BME280;5220;43.192;23.284;2022-07-06T08:32:31;97017.22;;;25.65;63.12
10348;BME280;5220;43.192;23.284;2022-07-06T08:34:58;97021.56;;;25.80;61.00
10348;BME280;5220;43.192;23.284;2022-07-06T08:37:25;97014.56;;;25.92;60.82
10348;BME280;5220;43.192;23.284;2022-07-06T08:39:52;97014.16;;;26.08;57.77
10348;BME280;5220;43.192;23.284;2022-07-06T08:45:49;97022.56;;;25.98;60.75
10348;BME280;5220;43.192;23.284;2022-07-06T08:48:18;97015.59;;;25.91;60.94
10348;BME280;5220;43.192;23.284;2022-07-06T08:50:45;97011.31;;;26.03;60.69
10348;BME280;5220;43.192;23.284;2022-07-06T08:53:12;97014.97;;;26.15;60.70
10348;BME280;5220;43.192;23.284;2022-07-06T08:55:41;97007.81;;;26.09;61.16
10348;BME280;5220;43.192;23.284;2022-07-06T08:58:08;97009.66;;;26.08;61.05
10348;BME280;5220;43.192;23.284;2022-07-06T09:00:36;97014.16;;;26.21;60.84
10348;BME280;5220;43.192;23.284;2022-07-06T09:03:03;97009.63;;;26.28;59.38
10348;BME280;5220;43.192;23.284;2022-07-06T09:05:34;97015.59;;;26.30;61.05
10348;BME280;5220;43.192;23.284;2022-07-06T09:08:02;97014.59;;;26.18;60.41
10348;BME280;5220;43.192;23.284;2022-07-06T09:10:29;97013.31;;;26.34;61.12
10348;BME280;5220;43.192;23.284;2022-07-06T09:13:04;97012.69;;;26.32;60.91
10348;BME280;5220;43.192;23.284;2022-07-06T09:15:32;97012.47;;;26.40;60.16
10348;BME280;5220;43.192;23.284;2022-07-06T09:17:59;97010.44;;;26.22;60.06
10348;BME280;5220;43.192;23.284;2022-07-06T09:20:26;97016.59;;;26.29;60.82
10348;BME280;5220;43.192;23.284;2022-07-06T09:22:59;97018.66;;;26.34;61.18
10348;BME280;5220;43.192;23.284;2022-07-06T09:25:28;97009.84;;;26.20;62.00
10348;BME280;5220;43.192;23.284;2022-07-06T09:27:57;97010.44;;;26.29;61.54
10348;BME280;5220;43.192;23.284;2022-07-06T09:30:25;97009.63;;;26.28;61.07
10348;BME280;5220;43.192;23.284;2022-07-06T09:32:54;97021.09;;;26.35;60.61
10348;BME280;5220;43.192;23.284;2022-07-06T09:35:22;97012.91;;;26.30;60.03
10348;BME280;5220;43.192;23.284;2022-07-06T09:38:02;97019.03;;;26.37;59.57
10348;BME280;5220;43.192;23.284;2022-07-06T09:40:30;97024.00;;;26.27;60.44
10348;BME280;5220;43.192;23.284;2022-07-06T09:43:11;97014.75;;;26.30;59.96
10348;BME280;5220;43.192;23.284;2022-07-06T09:45:41;97011.69;;;26.19;59.94
10348;BME280;5220;43.192;23.284;2022-07-06T09:48:09;97009.44;;;26.23;60.57
10348;BME280;5220;43.192;23.284;2022-07-06T09:50:44;97005.50;;;26.32;60.46
10348;BME280;5220;43.192;23.284;2022-07-06T09:53:14;97002.00;;;26.38;59.97
10348;BME280;5220;43.192;23.284;2022-07-06T09:55:46;96996.47;;;26.46;59.97
10348;BME280;5220;43.192;23.284;2022-07-06T09:58:14;96997.69;;;26.44;61.21
10348;BME280;5220;43.192;23.284;2022-07-06T10:00:41;96995.16;;;26.62;61.10
10348;BME280;5220;43.192;23.284;2022-07-06T10:03:09;96993.94;;;26.58;60.05
10348;BME280;5220;43.192;23.284;2022-07-06T10:05:41;96991.44;;;26.63;61.33
10348;BME280;5220;43.192;23.284;2022-07-06T10:08:09;96996.31;;;26.79;60.02
10348;BME280;5220;43.192;23.284;2022-07-06T10:10:58;96996.16;;;26.74;59.64
10348;BME280;5220;43.192;23.284;2022-07-06T10:13:27;96987.88;;;26.89;59.40
10348;BME280;5220;43.192;23.284;2022-07-06T10:16:08;96990.47;;;27.08;60.59
10348;BME280;5220;43.192;23.284;2022-07-06T10:18:35;96994.31;;;27.12;60.77
10348;BME280;5220;43.192;23.284;2022-07-06T10:21:02;96993.66;;;27.23;59.45
10348;BME280;5220;43.192;23.284;2022-07-06T10:23:35;96993.25;;;27.20;59.13
10348;BME280;5220;43.192;23.284;2022-07-06T10:26:05;96995.69;;;27.21;58.58
10348;BME280;5220;43.192;23.284;2022-07-06T10:28:33;96994.25;;;27.25;58.22
10348;BME280;5220;43.192;23.284;2022-07-06T10:34:33;96996.00;;;27.07;58.31
10348;BME280;5220;43.192;23.284;2022-07-06T10:37:05;96988.84;;;27.01;58.75
10348;BME280;5220;43.192;23.284;2022-07-06T10:39:33;96984.22;;;26.83;59.78
10348;BME280;5220;43.192;23.284;2022-07-06T10:42:40;96977.63;;;26.79;60.84
10348;BME280;5220;43.192;23.284;2022-07-06T10:48:34;96983.16;;;26.84;61.07
10348;BME280;5220;43.192;23.284;2022-07-06T10:51:01;96988.22;;;26.48;60.18
10348;BME280;5220;43.192;23.284;2022-07-06T10:53:32;96987.97;;;26.62;61.08
10348;BME280;5220;43.192;23.284;2022-07-06T10:56:02;96980.91;;;26.74;61.20
10348;BME280;5220;43.192;23.284;2022-07-06T10:58:52;96991.59;;;26.81;61.14
10348;BME280;5220;43.192;23.284;2022-07-06T11:01:20;96999.00;;;26.72;60.24
10348;BME280;5220;43.192;23.284;2022-07-06T11:03:49;96989.31;;;26.78;58.82
10348;BME280;5220;43.192;23.284;2022-07-06T11:06:26;96983.78;;;26.86;58.92
10348;BME280;5220;43.192;23.284;2022-07-06T11:08:54;96981.69;;;26.95;59.14
10348;BME280;5220;43.192;23.284;2022-07-06T11:11:23;96974.94;;;26.92;60.43
10348;BME280;5220;43.192;23.284;2022-07-06T11:14:07;96969.59;;;26.92;59.67
10348;BME280;5220;43.192;23.284;2022-07-06T11:16:37;96973.72;;;26.88;60.85
10348;BME280;5220;43.192;23.284;2022-07-06T11:19:07;96978.41;;;26.93;60.25
10348;BME280;5220;43.192;23.284;2022-07-06T11:21:40;96977.75;;;26.97;58.10
10348;BME280;5220;43.192;23.284;2022-07-06T11:24:14;96974.91;;;26.99;59.46
10348;BME280;5220;43.192;23.284;2022-07-06T11:26:43;96974.25;;;27.03;58.99
10348;BME280;5220;43.192;23.284;2022-07-06T11:29:13;96983.09;;;26.97;59.30
10348;BME280;5220;43.192;23.284;2022-07-06T11:31:41;96978.84;;;26.90;59.04
10348;BME280;5220;43.192;23.284;2022-07-06T11:34:24;96975.91;;;26.98;59.99
10348;BME280;5220;43.192;23.284;2022-07-06T11:36:55;96980.41;;;27.04;60.11
10348;BME280;5220;43.192;23.284;2022-07-06T11:39:23;96984.78;;;26.92;59.35
10348;BME280;5220;43.192;23.284;2022-07-06T11:42:10;96989.53;;;26.90;61.06
10348;BME280;5220;43.192;23.284;2022-07-06T11:44:56;97002.94;;;26.63;65.03
10348;BME280;5220;43.192;23.284;2022-07-06T11:47:30;96996.25;;;26.41;69.62
10348;BME280;5220;43.192;23.284;2022-07-06T11:49:57;97000.19;;;26.12;70.08
10348;BME280;5220;43.192;23.284;2022-07-06T11:52:24;97003.50;;;25.82;71.79
10348;BME280;5220;43.192;23.284;2022-07-06T11:58:13;97003.41;;;25.16;75.22
10348;BME280;5220;43.192;23.284;2022-07-06T12:00:42;96993.38;;;25.05;76.12
10348;BME280;5220;43.192;23.284;2022-07-06T12:03:09;96995.97;;;24.85;75.50
10348;BME280;5220;43.192;23.284;2022-07-06T12:05:36;96988.72;;;24.73;75.89
10348;BME280;5220;43.192;23.284;2022-07-06T12:08:06;96998.38;;;24.74;77.72
10348;BME280;5220;43.192;23.284;2022-07-06T12:10:34;96984.63;;;24.70;78.29
10348;BME280;5220;43.192;23.284;2022-07-06T12:13:03;96993.00;;;24.67;80.14
10348;BME280;5220;43.192;23.284;2022-07-06T12:15:47;96987.50;;;24.69;80.10
10348;BME280;5220;43.192;23.284;2022-07-06T12:18:15;96992.19;;;24.67;80.03
10348;BME280;5220;43.192;23.284;2022-07-06T12:20:43;96993.19;;;24.59;80.07
10348;BME280;5220;43.192;23.284;2022-07-06T12:23:19;96985.38;;;24.51;79.68
10348;BME280;5220;43.192;23.284;2022-07-06T12:25:46;96993.59;;;24.56;81.32
10348;BME280;5220;43.192;23.284;2022-07-06T12:28:22;96994.03;;;24.66;82.91
10348;BME280;5220;43.192;23.284;2022-07-06T12:37:06;96980.47;;;25.02;82.87
10348;BME280;5220;43.192;23.284;2022-07-06T12:39:41;96980.50;;;25.15;78.78
10348;BME280;5220;43.192;23.284;2022-07-06T12:42:08;96973.13;;;25.24;78.65
10348;BME280;5220;43.192;23.284;2022-07-06T12:44:54;96971.09;;;25.39;73.86
10348;BME280;5220;43.192;23.284;2022-07-06T12:50:42;96968.25;;;25.40;69.55
10348;BME280;5220;43.192;23.284;2022-07-06T12:53:45;96962.91;;;25.53;71.71
10348;BME280;5220;43.192;23.284;2022-07-06T12:56:30;96954.75;;;25.61;68.72
10348;BME280;5220;43.192;23.284;2022-07-06T12:58:57;96959.25;;;25.54;69.43
10348;BME280;5220;43.192;23.284;2022-07-06T13:01:25;96955.94;;;25.65;69.57
10348;BME280;5220;43.192;23.284;2022-07-06T13:03:59;96961.50;;;25.71;71.56
10348;BME280;5220;43.192;23.284;2022-07-06T13:09:47;96946.69;;;25.88;68.62
10348;BME280;5220;43.192;23.284;2022-07-06T13:12:14;96943.41;;;26.05;65.31
10348;BME280;5220;43.192;23.284;2022-07-06T13:14:45;96949.56;;;26.06;67.54
10348;BME280;5220;43.192;23.284;2022-07-06T13:17:12;96943.41;;;25.99;66.47
10348;BME280;5220;43.192;23.284;2022-07-06T13:19:39;96949.75;;;26.11;65.61
10348;BME280;5220;43.192;23.284;2022-07-06T13:22:06;96941.91;;;26.29;63.72
10348;BME280;5220;43.192;23.284;2022-07-06T13:24:34;96932.91;;;26.30;66.37
10348;BME280;5220;43.192;23.284;2022-07-06T13:27:09;96933.22;;;26.47;67.07
10348;BME280;5220;43.192;23.284;2022-07-06T13:29:37;96926.84;;;26.54;66.12
10348;BME280;5220;43.192;23.284;2022-07-06T13:32:05;96934.78;;;26.67;60.65
10348;BME280;5220;43.192;23.284;2022-07-06T13:34:51;96926.50;;;26.76;60.58
10348;BME280;5220;43.192;23.284;2022-07-06T13:37:22;96925.69;;;26.75;62.21
10348;BME280;5220;43.192;23.284;2022-07-06T13:39:52;96931.41;;;26.79;63.81
10348;BME280;5220;43.192;23.284;2022-07-06T13:42:33;96924.81;;;26.88;61.18
10348;BME280;5220;43.192;23.284;2022-07-06T13:45:01;96917.56;;;27.01;59.29
10348;BME280;5220;43.192;23.284;2022-07-06T13:47:28;96917.16;;;26.98;60.22
10348;BME280;5220;43.192;23.284;2022-07-06T13:50:11;96921.97;;;26.89;62.30
10348;BME280;5220;43.192;23.284;2022-07-06T13:52:38;96904.09;;;26.90;60.23
10348;BME280;5220;43.192;23.284;2022-07-06T13:55:15;96918.31;;;27.15;60.78
10348;BME280;5220;43.192;23.284;2022-07-06T13:57:43;96919.28;;;27.20;63.57
10348;BME280;5220;43.192;23.284;2022-07-06T14:00:11;96917.25;;;27.16;62.15
10348;BME280;5220;43.192;23.284;2022-07-06T14:02:39;96913.94;;;27.20;59.88
10348;BME280;5220;43.192;23.284;2022-07-06T14:08:28;96914.63;;;27.34;59.39
10348;BME280;5220;43.192;23.284;2022-07-06T14:10:55;96910.56;;;27.56;57.13
10348;BME280;5220;43.192;23.284;2022-07-06T14:13:24;96899.97;;;27.68;58.13